createdAt,value
2022-09-12T00:02:04.429Z,15.18
2022-09-12T00:04:32.116Z,14.94
2022-09-12T00:06:59.435Z,15.52
2022-09-12T00:09:26.804Z,15.75
2022-09-12T00:11:54.455Z,15.24
2022-09-12T00:14:21.794Z,15.19
2022-09-12T00:16:49.191Z,15.52
2022-09-12T00:19:16.809Z,15.50
2022-09-12T00:21:44.165Z,15.62
2022-09-12T00:24:11.560Z,14.98
2022-09-12T00:26:39.144Z,15.30
2022-09-12T00:29:06.629Z,15.20
2022-09-12T00:31:34.081Z,14.75
2022-09-12T00:34:01.732Z,14.86
2022-09-12T00:36:29.389Z,14.86
2022-09-12T00:38:56.900Z,15.49
2022-09-12T00:41:26.828Z,15.73
2022-09-12T00:44:24.733Z,16.31
2022-09-12T00:46:55.303Z,16.48
2022-09-12T00:49:41.138Z,16.65
2022-09-12T00:52:10.533Z,17.02
2022-09-12T00:54:41.560Z,16.71
2022-09-12T00:57:09.752Z,16.68
2022-09-12T01:00:01.981Z,16.78
2022-09-12T01:02:29.622Z,17.03
2022-09-12T01:04:56.986Z,17.20
2022-09-12T01:07:24.326Z,17.10
2022-09-12T01:09:51.908Z,16.37
2022-09-12T01:12:19.274Z,16.92
2022-09-12T01:14:46.643Z,16.68
2022-09-12T01:17:14.935Z,16.73
2022-09-12T01:20:05.629Z,16.44
2022-09-12T01:23:00.889Z,16.94
2022-09-12T01:25:55.572Z,16.33
2022-09-12T01:29:08.341Z,14.53
2022-09-12T01:31:57.805Z,14.34
2022-09-12T01:35:10.616Z,14.02
2022-09-12T01:37:42.625Z,14.04
2022-09-12T01:40:16.644Z,14.35
2022-09-12T01:43:07.143Z,14.62
2022-09-12T01:45:48.986Z,14.47
2022-09-12T01:48:20.439Z,14.64
2022-09-12T01:50:52.221Z,14.60
2022-09-12T01:53:25.422Z,14.96
2022-09-12T01:56:02.241Z,14.66
2022-09-12T01:58:30.947Z,14.68
2022-09-12T02:01:18.216Z,14.18
2022-09-12T02:03:51.902Z,14.01
2022-09-12T02:06:33.630Z,14.59
2022-09-12T02:09:05.262Z,14.52
2022-09-12T02:11:33.354Z,14.14
2022-09-12T02:14:12.352Z,14.02
2022-09-12T02:16:45.264Z,14.01
2022-09-12T02:19:16.004Z,14.02
2022-09-12T02:21:56.519Z,14.24
2022-09-12T02:24:25.967Z,14.50
2022-09-12T02:26:56.134Z,14.68
2022-09-12T02:29:23.769Z,15.10
2022-09-12T02:32:04.948Z,15.33
2022-09-12T02:34:34.420Z,15.82
2022-09-12T02:37:07.634Z,14.88
2022-09-12T02:39:35.233Z,14.96
2022-09-12T02:42:02.852Z,14.80
2022-09-12T02:44:30.273Z,15.06
2022-09-12T02:47:01.469Z,14.68
2022-09-12T02:49:28.804Z,15.07
2022-09-12T02:51:56.176Z,15.16
2022-09-12T02:54:23.832Z,14.79
2022-09-12T02:56:51.181Z,14.77
2022-09-12T02:59:19.669Z,15.08
2022-09-12T03:02:21.394Z,15.29
2022-09-12T03:05:03.048Z,15.98
2022-09-12T03:07:52.863Z,15.79
2022-09-12T03:10:57.849Z,16.06
2022-09-12T03:13:50.040Z,15.31
2022-09-12T03:16:28.712Z,14.76
2022-09-12T03:19:01.640Z,14.98
2022-09-12T03:21:32.050Z,14.26
2022-09-12T03:24:18.230Z,14.31
2022-09-12T03:27:06.918Z,13.73
2022-09-12T03:29:34.542Z,14.01
2022-09-12T03:32:02.038Z,13.56
2022-09-12T03:34:29.406Z,14.05
2022-09-12T03:36:57.063Z,14.18
2022-09-12T03:39:24.584Z,13.89
2022-09-12T03:41:51.951Z,13.41
2022-09-12T03:44:19.702Z,13.95
2022-09-12T03:46:47.068Z,13.73
2022-09-12T03:49:14.418Z,14.19
2022-09-12T03:51:43.071Z,13.84
2022-09-12T03:54:10.761Z,13.98
2022-09-12T03:56:38.123Z,13.95
2022-09-12T03:59:06.640Z,13.49
2022-09-12T04:01:34.089Z,13.40
2022-09-12T04:04:01.808Z,13.84
2022-09-12T04:06:29.724Z,14.19
2022-09-12T04:08:57.125Z,13.53
2022-09-12T04:11:24.793Z,13.49
2022-09-12T04:13:52.164Z,13.53
2022-09-12T04:16:19.736Z,13.39
2022-09-12T04:18:47.541Z,13.30
2022-09-12T04:21:17.295Z,13.43
2022-09-12T04:23:44.720Z,13.46
2022-09-12T04:26:13.667Z,13.37
2022-09-12T04:28:41.046Z,13.84
2022-09-12T04:31:13.466Z,13.91
2022-09-12T04:33:41.253Z,13.71
2022-09-12T04:36:14.683Z,13.53
2022-09-12T04:38:46.593Z,13.53
2022-09-12T04:41:21.772Z,13.61
2022-09-12T04:43:52.566Z,13.84
2022-09-12T04:46:20.410Z,13.37
2022-09-12T04:48:49.260Z,13.55
2022-09-12T04:51:25.935Z,13.57
2022-09-12T04:53:54.545Z,13.48
2022-09-12T04:56:22.193Z,13.26
2022-09-12T04:58:49.762Z,13.46
2022-09-12T05:01:18.642Z,13.52
2022-09-12T05:03:46.446Z,13.65
2022-09-12T05:06:21.289Z,13.70
2022-09-12T05:08:48.924Z,13.92
2022-09-12T05:11:26.662Z,13.59
2022-09-12T05:13:58.025Z,13.95
2022-09-12T05:16:26.102Z,14.24
2022-09-12T05:18:53.584Z,14.05
2022-09-12T05:21:23.157Z,14.13
2022-09-12T05:23:54.493Z,14.31
2022-09-12T05:26:22.956Z,14.58
2022-09-12T05:28:50.837Z,14.60
2022-09-12T05:31:22.743Z,14.26
2022-09-12T05:33:51.117Z,15.07
2022-09-12T05:36:22.018Z,14.92
2022-09-12T05:38:49.665Z,14.81
2022-09-12T05:41:24.804Z,14.87
2022-09-12T05:43:59.747Z,14.58
2022-09-12T05:46:28.572Z,14.56
2022-09-12T05:48:56.835Z,14.58
2022-09-12T05:51:28.257Z,15.00
2022-09-12T05:53:57.077Z,14.54
2022-09-12T05:56:26.047Z,14.73
2022-09-12T05:58:54.239Z,14.94
2022-09-12T06:01:21.900Z,14.55
2022-09-12T06:03:54.244Z,14.74
2022-09-12T06:06:23.383Z,15.06
2022-09-12T06:08:52.631Z,15.47
2022-09-12T06:11:21.561Z,15.81
2022-09-12T06:13:49.087Z,15.02
2022-09-12T06:16:22.011Z,15.43
2022-09-12T06:18:59.524Z,16.00
2022-09-12T06:21:27.354Z,15.84
2022-09-12T06:23:55.076Z,15.53
2022-09-12T06:26:23.543Z,16.09
2022-09-12T06:28:51.451Z,15.85
2022-09-12T06:31:29.352Z,16.61
2022-09-12T06:33:57.397Z,16.84
2022-09-12T06:36:26.621Z,16.41
2022-09-12T06:38:58.067Z,15.84
2022-09-12T06:41:25.776Z,16.13
2022-09-12T06:43:53.231Z,16.11
2022-09-12T06:46:21.142Z,16.33
2022-09-12T06:48:48.876Z,16.82
2022-09-12T06:51:17.715Z,16.91
2022-09-12T06:53:45.233Z,16.54
2022-09-12T06:56:13.720Z,16.98
2022-09-12T06:58:41.436Z,16.66
2022-09-12T07:01:13.314Z,16.81
2022-09-12T07:03:41.160Z,16.45
2022-09-12T07:06:10.561Z,16.64
2022-09-12T07:08:38.280Z,16.79
2022-09-12T07:11:21.656Z,16.93
2022-09-12T07:13:50.510Z,16.88
2022-09-12T07:16:19.946Z,16.96
2022-09-12T07:19:00.280Z,17.15
2022-09-12T07:21:28.298Z,17.65
2022-09-12T07:23:57.772Z,16.95
2022-09-12T07:26:29.244Z,16.79
2022-09-12T07:29:12.898Z,16.78
2022-09-12T07:31:45.177Z,17.02
2022-09-12T07:34:13.006Z,17.53
2022-09-12T07:36:40.355Z,17.24
2022-09-12T07:39:07.706Z,17.35
2022-09-12T07:41:35.467Z,17.06
2022-09-12T07:44:03.240Z,17.38
2022-09-12T07:46:30.941Z,17.88
2022-09-12T07:48:59.340Z,17.30
2022-09-12T07:51:27.651Z,17.66
2022-09-12T07:53:56.293Z,17.98
2022-09-12T07:56:29.434Z,17.96
2022-09-12T07:58:57.409Z,17.86
2022-09-12T08:01:25.134Z,18.00
2022-09-12T08:03:57.590Z,18.01
2022-09-12T08:06:25.479Z,17.72
2022-09-12T08:08:54.468Z,17.70
2022-09-12T08:11:22.326Z,18.32
2022-09-12T08:13:55.429Z,17.93
2022-09-12T08:16:27.290Z,18.43
2022-09-12T08:18:54.811Z,18.27
2022-09-12T08:21:23.947Z,18.83
2022-09-12T08:23:53.333Z,18.78
2022-09-12T08:26:20.671Z,18.96
2022-09-12T08:28:48.006Z,19.16
2022-09-12T08:31:17.038Z,18.81
2022-09-12T08:33:44.746Z,18.90
2022-09-12T08:36:15.822Z,19.28
2022-09-12T08:38:45.161Z,19.81
2022-09-12T08:41:18.539Z,20.14
2022-09-12T08:43:56.687Z,19.44
2022-09-12T08:46:59.602Z,19.35
2022-09-12T08:49:36.141Z,18.97
2022-09-12T08:52:19.531Z,19.45
2022-09-12T08:54:47.618Z,19.55
2022-09-12T08:57:15.609Z,19.52
2022-09-12T08:59:44.862Z,19.19
2022-09-12T09:02:29.338Z,19.60
2022-09-12T09:05:20.299Z,19.77
2022-09-12T09:08:19.085Z,19.94
2022-09-12T09:11:07.671Z,19.52
2022-09-12T09:14:05.143Z,19.93
2022-09-12T09:16:38.107Z,19.93
2022-09-12T09:19:29.630Z,19.79
2022-09-12T09:21:58.282Z,20.62
2022-09-12T09:24:28.965Z,20.36
2022-09-12T09:27:02.090Z,20.09
2022-09-12T09:29:50.647Z,19.50
2022-09-12T09:32:19.111Z,19.76
2022-09-12T09:34:46.726Z,19.81
2022-09-12T09:37:19.665Z,19.70
2022-09-12T09:39:52.861Z,20.25
2022-09-12T09:42:40.563Z,20.75
2022-09-12T09:45:16.328Z,20.14
2022-09-12T09:48:11.296Z,20.67
2022-09-12T09:50:48.225Z,21.53
2022-09-12T09:53:40.365Z,21.30
2022-09-12T09:56:27.025Z,21.92
2022-09-12T09:58:54.334Z,22.35
2022-09-12T10:01:22.266Z,21.97
2022-09-12T10:03:53.875Z,21.83
2022-09-12T10:06:21.180Z,21.98
2022-09-12T10:08:48.938Z,22.16
2022-09-12T10:11:16.375Z,21.91
2022-09-12T10:13:57.587Z,21.86
2022-09-12T10:16:49.768Z,22.16
2022-09-12T10:19:24.986Z,22.05
2022-09-12T10:21:53.788Z,21.02
2022-09-12T10:24:41.251Z,20.78
2022-09-12T10:27:10.095Z,20.84
2022-09-12T10:29:46.001Z,21.03
2022-09-12T10:32:31.121Z,20.70
2022-09-12T10:35:02.881Z,21.16
2022-09-12T10:37:32.789Z,21.85
2022-09-12T10:40:00.743Z,21.20
2022-09-12T10:42:56.461Z,20.97
2022-09-12T10:45:32.077Z,21.68
2022-09-12T10:48:05.422Z,21.93
2022-09-12T10:50:41.727Z,22.06
2022-09-12T10:53:22.570Z,21.63
2022-09-12T10:56:09.802Z,22.05
2022-09-12T10:58:48.875Z,22.09
2022-09-12T11:01:37.352Z,21.54
2022-09-12T11:04:32.817Z,21.82
2022-09-12T11:07:16.450Z,21.94
2022-09-12T11:10:21.766Z,21.70
2022-09-12T11:13:06.202Z,21.69
2022-09-12T11:15:57.396Z,21.57
2022-09-12T11:18:33.644Z,21.58
2022-09-12T11:21:13.508Z,21.86
2022-09-12T11:23:43.769Z,21.05
2022-09-12T11:26:34.932Z,21.07
2022-09-12T11:29:26.594Z,20.35
2022-09-12T11:32:27.733Z,20.97
2022-09-12T11:35:16.634Z,19.96
2022-09-12T11:37:50.701Z,20.47
2022-09-12T11:40:38.488Z,21.11
2022-09-12T11:43:27.971Z,20.83
2022-09-12T11:45:55.632Z,20.81
2022-09-12T11:48:38.042Z,19.92
2022-09-12T11:51:07.611Z,20.54
2022-09-12T11:53:36.994Z,20.32
2022-09-12T11:56:13.831Z,20.52
2022-09-12T11:58:42.124Z,20.65
2022-09-12T12:01:11.792Z,20.94
2022-09-12T12:03:44.720Z,20.76
2022-09-12T12:06:12.701Z,20.74
2022-09-12T12:08:41.888Z,20.81
2022-09-12T12:11:09.522Z,21.36
2022-09-12T12:13:39.962Z,20.82
2022-09-12T12:16:28.508Z,21.36
2022-09-12T12:19:00.296Z,21.58
2022-09-12T12:21:42.269Z,21.22
2022-09-12T12:24:09.561Z,20.62
2022-09-12T12:26:42.922Z,21.71
2022-09-12T12:29:13.512Z,21.06
2022-09-12T12:32:04.443Z,20.91
2022-09-12T12:34:42.243Z,21.07
2022-09-12T12:37:18.753Z,20.63
2022-09-12T12:39:48.007Z,20.87
2022-09-12T12:42:36.692Z,20.50
2022-09-12T12:45:24.417Z,21.18
2022-09-12T12:48:03.975Z,21.23
2022-09-12T12:50:33.637Z,21.44
2022-09-12T12:53:19.585Z,20.75
2022-09-12T12:55:51.446Z,21.03
2022-09-12T12:58:32.094Z,21.24
2022-09-12T13:01:28.984Z,21.27
2022-09-12T13:04:05.478Z,21.70
2022-09-12T13:06:34.230Z,22.22
2022-09-12T13:09:23.117Z,22.36
2022-09-12T13:12:08.132Z,22.29
2022-09-12T13:14:49.728Z,21.37
2022-09-12T13:17:22.698Z,21.83
2022-09-12T13:20:00.802Z,21.52
2022-09-12T13:22:45.968Z,21.75
2022-09-12T13:25:25.628Z,21.35
2022-09-12T13:28:03.670Z,21.14
2022-09-12T13:30:33.098Z,21.01
2022-09-12T13:33:27.035Z,20.95
2022-09-12T13:36:23.744Z,21.15
2022-09-12T13:38:57.218Z,21.18
2022-09-12T13:42:03.109Z,20.96
2022-09-12T13:44:30.739Z,21.16
2022-09-12T13:47:01.119Z,20.77
2022-09-12T13:49:35.203Z,21.07
2022-09-12T13:52:04.894Z,21.03
2022-09-12T13:54:32.400Z,20.87
2022-09-12T13:56:59.857Z,20.66
2022-09-12T13:59:27.938Z,21.50
2022-09-12T14:01:55.370Z,21.10
2022-09-12T14:04:43.370Z,21.13
2022-09-12T14:07:18.900Z,20.90
2022-09-12T14:09:55.101Z,21.52
2022-09-12T14:12:26.515Z,21.53
2022-09-12T14:14:54.107Z,21.83
2022-09-12T14:17:31.682Z,21.40
2022-09-12T14:20:03.275Z,21.18
2022-09-12T14:22:30.800Z,21.31
2022-09-12T14:24:59.270Z,21.03
2022-09-12T14:27:32.226Z,21.44
2022-09-12T14:30:07.297Z,21.21
2022-09-12T14:32:35.463Z,21.00
2022-09-12T14:35:11.825Z,20.70
2022-09-12T14:37:39.447Z,20.75
2022-09-12T14:40:19.220Z,20.73
2022-09-12T14:42:49.606Z,21.08
2022-09-12T14:45:26.230Z,20.73
2022-09-12T14:47:53.948Z,20.65
2022-09-12T14:50:26.381Z,20.68
2022-09-12T14:53:07.914Z,20.65
2022-09-12T14:55:36.079Z,20.48
2022-09-12T14:58:12.041Z,20.42
2022-09-12T15:01:22.427Z,20.77
2022-09-12T15:03:53.285Z,21.28
2022-09-12T15:06:30.926Z,20.90
2022-09-12T15:09:02.280Z,20.37
2022-09-12T15:11:29.618Z,20.50
2022-09-12T15:13:56.982Z,20.89
2022-09-12T15:16:24.620Z,20.49
2022-09-12T15:18:52.098Z,20.72
2022-09-12T15:21:19.912Z,20.40
2022-09-12T15:23:48.928Z,20.75
2022-09-12T15:26:18.269Z,20.69
2022-09-12T15:28:45.644Z,20.30
2022-09-12T15:31:13.146Z,20.05
2022-09-12T15:33:40.582Z,20.10
2022-09-12T15:36:16.436Z,20.32
2022-09-12T15:38:44.453Z,20.19
2022-09-12T15:41:16.477Z,20.25
2022-09-12T15:43:44.347Z,20.15
2022-09-12T15:46:12.276Z,20.12
2022-09-12T15:48:39.669Z,20.28
2022-09-12T15:51:15.608Z,20.42
2022-09-12T15:53:43.604Z,20.23
2022-09-12T15:56:11.514Z,19.96
2022-09-12T15:58:54.623Z,19.72
2022-09-12T16:01:25.823Z,19.85
2022-09-12T16:03:53.446Z,20.34
2022-09-12T16:06:20.795Z,20.09
2022-09-12T16:08:48.189Z,20.37
2022-09-12T16:11:21.027Z,19.81
2022-09-12T16:13:48.926Z,19.69
2022-09-12T16:16:16.621Z,19.83
2022-09-12T16:18:44.077Z,20.12
2022-09-12T16:21:14.921Z,19.73
2022-09-12T16:23:46.746Z,19.54
2022-09-12T16:26:14.097Z,19.61
2022-09-12T16:28:41.469Z,19.67
2022-09-12T16:31:10.987Z,19.76
2022-09-12T16:33:38.724Z,19.44
2022-09-12T16:36:07.565Z,19.39
2022-09-12T16:38:35.883Z,19.23
2022-09-12T16:41:05.350Z,19.25
2022-09-12T16:43:33.199Z,19.13
2022-09-12T16:46:11.447Z,19.56
2022-09-12T16:48:49.532Z,19.27
2022-09-12T16:51:20.940Z,19.39
2022-09-12T16:53:48.301Z,20.11
2022-09-12T16:56:15.704Z,19.80
2022-09-12T16:58:45.181Z,19.38
2022-09-12T17:01:14.876Z,19.93
2022-09-12T17:03:42.445Z,19.37
2022-09-12T17:06:12.112Z,19.41
2022-09-12T17:08:41.151Z,19.60
2022-09-12T17:11:10.228Z,20.06
2022-09-12T17:14:02.685Z,19.83
2022-09-12T17:16:26.468Z,19.47
2022-09-12T17:18:54.087Z,19.69
2022-09-12T17:21:21.621Z,20.11
2022-09-12T17:23:49.789Z,20.16
2022-09-12T17:26:17.441Z,20.11
2022-09-12T17:28:47.552Z,20.11
2022-09-12T17:31:15.109Z,20.26
2022-09-12T17:33:43.015Z,19.88
2022-09-12T17:36:14.945Z,19.58
2022-09-12T17:38:43.556Z,19.14
2022-09-12T17:41:18.520Z,19.17
2022-09-12T17:43:50.250Z,18.66
2022-09-12T17:46:20.872Z,18.50
2022-09-12T17:48:52.765Z,18.37
2022-09-12T17:51:20.388Z,18.21
2022-09-12T17:53:48.413Z,18.23
2022-09-12T17:56:15.838Z,18.52
2022-09-12T17:58:44.387Z,18.47
2022-09-12T18:01:34.714Z,18.44
2022-09-12T18:04:03.478Z,18.77
2022-09-12T18:06:31.530Z,18.27
2022-09-12T18:09:01.116Z,18.34
2022-09-12T18:11:29.010Z,18.07
2022-09-12T18:14:00.209Z,18.22
2022-09-12T18:16:31.522Z,18.75
2022-09-12T18:19:01.341Z,19.16
2022-09-12T18:21:29.014Z,18.80
2022-09-12T18:23:58.920Z,18.10
2022-09-12T18:26:27.335Z,18.79
2022-09-12T18:28:54.757Z,18.02
2022-09-12T18:31:23.996Z,18.23
2022-09-12T18:33:51.812Z,18.08
2022-09-12T18:36:19.689Z,18.79
2022-09-12T18:38:47.975Z,19.18
2022-09-12T18:41:17.317Z,19.07
2022-09-12T18:43:45.006Z,19.02
2022-09-12T18:46:17.224Z,19.14
2022-09-12T18:48:45.129Z,19.18
2022-09-12T18:51:17.938Z,19.22
2022-09-12T18:54:08.893Z,18.86
2022-09-12T18:56:38.051Z,18.84
2022-09-12T18:59:06.558Z,18.81
2022-09-12T19:01:37.720Z,18.78
2022-09-12T19:04:05.761Z,17.53
2022-09-12T19:06:41.141Z,17.33
2022-09-12T19:09:09.111Z,17.17
2022-09-12T19:11:37.845Z,17.26
2022-09-12T19:14:05.748Z,16.90
2022-09-12T19:16:33.223Z,17.45
2022-09-12T19:19:02.527Z,18.03
2022-09-12T19:21:30.947Z,18.19
2022-09-12T19:24:03.533Z,18.16
2022-09-12T19:26:31.133Z,18.32
2022-09-12T19:29:00.015Z,18.45
2022-09-12T19:31:27.466Z,18.38
2022-09-12T19:34:02.557Z,18.15
2022-09-12T19:36:47.088Z,18.16
2022-09-12T19:39:16.888Z,18.22
2022-09-12T19:41:44.474Z,18.17
2022-09-12T19:44:11.955Z,17.74
2022-09-12T19:46:40.426Z,17.70
2022-09-12T19:49:09.472Z,17.62
2022-09-12T19:51:36.816Z,17.78
2022-09-12T19:54:04.641Z,17.63
2022-09-12T19:56:33.054Z,17.97
2022-09-12T19:59:00.417Z,18.03
2022-09-12T20:01:28.566Z,17.97
2022-09-12T20:03:57.244Z,17.87
2022-09-12T20:06:24.606Z,17.90
2022-09-12T20:08:51.953Z,17.90
2022-09-12T20:11:23.368Z,17.93
2022-09-12T20:13:50.825Z,18.00
2022-09-12T20:16:25.835Z,17.98
2022-09-12T20:18:57.094Z,17.51
2022-09-12T20:21:30.893Z,17.67
2022-09-12T20:24:11.992Z,17.61
2022-09-12T20:26:39.850Z,17.78
2022-09-12T20:29:07.648Z,17.71
2022-09-12T20:31:35.507Z,17.51
2022-09-12T20:34:03.087Z,17.48
2022-09-12T20:36:30.725Z,17.55
2022-09-12T20:39:01.188Z,17.69
2022-09-12T20:41:29.952Z,17.80
2022-09-12T20:43:57.594Z,17.72
2022-09-12T20:46:25.689Z,17.59
2022-09-12T20:48:53.150Z,17.64
2022-09-12T20:51:20.997Z,17.44
2022-09-12T20:53:48.547Z,17.36
2022-09-12T20:56:16.004Z,17.62
2022-09-12T20:58:44.602Z,17.48
2022-09-12T21:01:13.212Z,17.52
2022-09-12T21:03:40.908Z,17.49
2022-09-12T21:06:08.993Z,17.58
2022-09-12T21:08:36.702Z,17.53
2022-09-12T21:11:04.426Z,17.54
2022-09-12T21:13:32.114Z,17.55
2022-09-12T21:16:03.782Z,17.20
2022-09-12T21:18:31.421Z,17.09
2022-09-12T21:20:59.006Z,17.21
2022-09-12T21:23:26.867Z,17.05
2022-09-12T21:25:54.258Z,17.05
2022-09-12T21:28:22.132Z,17.00
2022-09-12T21:30:49.811Z,17.02
2022-09-12T21:33:18.276Z,16.84
2022-09-12T21:35:49.146Z,16.54
2022-09-12T21:38:16.901Z,16.71
2022-09-12T21:40:44.576Z,16.50
2022-09-12T21:43:13.133Z,15.86
2022-09-12T21:45:40.641Z,15.70
2022-09-12T21:48:07.972Z,15.93
2022-09-12T21:50:35.620Z,16.10
2022-09-12T21:53:03.094Z,16.04
2022-09-12T21:55:31.155Z,16.24
2022-09-12T21:57:58.786Z,15.92
2022-09-12T22:00:26.137Z,16.24
2022-09-12T22:02:53.787Z,16.46
2022-09-12T22:05:24.574Z,16.61
2022-09-12T22:07:52.534Z,16.78
2022-09-12T22:10:20.160Z,16.85
2022-09-12T22:12:47.502Z,16.62
2022-09-12T22:15:39.366Z,16.85
2022-09-12T22:18:02.423Z,16.65
2022-09-12T22:20:29.786Z,16.73
2022-09-12T22:23:15.734Z,16.91
2022-09-12T22:25:43.203Z,16.97
2022-09-12T22:28:10.611Z,16.90
2022-09-12T22:30:38.637Z,16.69
2022-09-12T22:33:06.291Z,16.44
2022-09-12T22:35:33.669Z,16.74
2022-09-12T22:38:01.010Z,16.67
2022-09-12T22:40:28.597Z,16.71
2022-09-12T22:42:55.955Z,16.69
2022-09-12T22:45:23.297Z,16.84
2022-09-12T22:47:50.981Z,16.91
2022-09-12T22:50:18.357Z,16.72
2022-09-12T22:52:45.690Z,16.43
2022-09-12T22:55:13.302Z,16.73
2022-09-12T22:57:40.621Z,16.90
2022-09-12T23:00:10.550Z,16.32
2022-09-12T23:02:38.173Z,16.47
2022-09-12T23:05:06.181Z,16.49
2022-09-12T23:07:33.604Z,16.33
2022-09-12T23:10:01.256Z,16.48
2022-09-12T23:12:28.611Z,16.46
2022-09-12T23:14:55.939Z,16.38
2022-09-12T23:17:23.569Z,16.63
2022-09-12T23:19:50.919Z,16.40
2022-09-12T23:22:18.386Z,16.34
2022-09-12T23:24:45.963Z,16.09
2022-09-12T23:27:13.328Z,16.33
2022-09-12T23:29:40.649Z,16.49
2022-09-12T23:32:08.242Z,16.58
2022-09-12T23:34:35.598Z,16.21
2022-09-12T23:37:03.251Z,16.39
2022-09-12T23:39:31.854Z,16.41
2022-09-12T23:41:59.210Z,16.12
2022-09-12T23:44:26.542Z,15.69
2022-09-12T23:46:54.160Z,15.98
2022-09-12T23:49:21.658Z,15.95
2022-09-12T23:51:49.014Z,15.99
2022-09-12T23:54:16.610Z,16.07
2022-09-12T23:56:43.947Z,15.94
2022-09-12T23:59:11.275Z,15.93
